Weather at Bari Karol Wojtyła Airport

Public forecast

Using degrees Celsius for public forecast. Weather courtesy of forecast.io.

Current aviation weather report (METAR) for Bari Karol Wojtyła Airport

2024/05/30 14:50 (retrieved 40 minutes ago)

LIBD 301450Z 18007KT 7000 SHRA VCTS FEW015 FEW030CB SCT040 20/17 Q1008

Aviation forecast (TAF) for Bari Karol Wojtyła Airport

2024/05/30 12:00 (retrieved 4 hours ago)

TAF LIBD 301100Z 3012/3112 10010KT CAVOK TEMPO 3012/3018 TSRA BKN010 BECMG 3015/3017 19012KT